createdAt,value
2023-05-04T00:00:45.470Z,47.40
2023-05-04T00:01:45.480Z,49.07
2023-05-04T00:02:45.601Z,53.39
2023-05-04T00:03:45.771Z,48.86
2023-05-04T00:04:45.451Z,48.84
2023-05-04T00:05:45.425Z,50.65
2023-05-04T00:06:45.447Z,48.65
2023-05-04T00:07:45.433Z,48.04
2023-05-04T00:08:45.488Z,47.76
2023-05-04T00:09:45.401Z,47.11
2023-05-04T00:10:45.411Z,46.90
2023-05-04T00:11:45.381Z,47.34
2023-05-04T00:12:45.433Z,49.10
2023-05-04T00:13:45.426Z,46.78
2023-05-04T00:14:45.372Z,47.79
2023-05-04T00:15:45.403Z,47.04
2023-05-04T00:16:45.411Z,46.40
2023-05-04T00:17:45.388Z,46.77
2023-05-04T00:18:45.403Z,50.57
2023-05-04T00:19:45.393Z,51.64
2023-05-04T00:20:45.366Z,48.45
2023-05-04T00:21:45.346Z,48.73
2023-05-04T00:22:45.359Z,48.78
2023-05-04T00:23:45.363Z,50.05
2023-05-04T00:24:45.355Z,48.57
2023-05-04T00:25:45.326Z,48.36
2023-05-04T00:26:45.323Z,53.33
2023-05-04T00:27:45.322Z,50.08
2023-05-04T00:28:45.339Z,48.47
2023-05-04T00:29:45.355Z,47.00
2023-05-04T00:30:45.304Z,47.39
2023-05-04T00:31:45.329Z,50.13
2023-05-04T00:32:45.389Z,50.00
2023-05-04T00:33:45.310Z,49.48
2023-05-04T00:34:45.313Z,47.22
2023-05-04T00:35:45.291Z,46.48
2023-05-04T00:36:45.271Z,46.71
2023-05-04T00:37:45.262Z,47.23
2023-05-04T00:38:45.281Z,47.66
2023-05-04T00:39:45.255Z,47.98
2023-05-04T00:40:45.320Z,46.39
2023-05-04T00:41:45.249Z,46.57
2023-05-04T00:42:45.297Z,47.30
2023-05-04T00:43:45.244Z,49.84
2023-05-04T00:44:45.230Z,46.78
2023-05-04T00:45:45.242Z,46.30
2023-05-04T00:46:45.416Z,46.37
2023-05-04T00:47:45.252Z,47.11
2023-05-04T00:48:45.226Z,47.52
2023-05-04T00:49:45.272Z,47.43
2023-05-04T00:50:45.232Z,46.87
2023-05-04T00:51:45.238Z,47.36
2023-05-04T00:52:45.213Z,47.53
2023-05-04T00:53:45.202Z,46.26
2023-05-04T00:54:45.249Z,46.50
2023-05-04T00:55:45.175Z,47.88
2023-05-04T00:56:45.204Z,47.11
2023-05-04T00:57:45.241Z,46.37
2023-05-04T00:58:45.212Z,47.44
2023-05-04T00:59:45.166Z,45.57
2023-05-04T01:00:45.238Z,46.72
2023-05-04T01:01:45.187Z,46.70
2023-05-04T01:02:45.295Z,47.11
2023-05-04T01:03:45.179Z,48.88
2023-05-04T01:04:45.135Z,48.68
2023-05-04T01:05:45.152Z,48.03
2023-05-04T01:06:45.140Z,47.91
2023-05-04T01:07:45.136Z,47.13
2023-05-04T01:08:45.116Z,47.63
2023-05-04T01:09:45.110Z,48.74
2023-05-04T01:10:45.090Z,49.14
2023-05-04T01:11:45.112Z,47.23
2023-05-04T01:12:45.181Z,48.72
2023-05-04T01:13:45.090Z,47.71
2023-05-04T01:14:45.091Z,48.21
2023-05-04T01:15:45.076Z,46.87
2023-05-04T01:16:45.131Z,46.47
2023-05-04T01:17:45.158Z,46.50
2023-05-04T01:18:45.097Z,46.88
2023-05-04T01:19:45.139Z,47.33
2023-05-04T01:20:45.074Z,48.44
2023-05-04T01:21:45.057Z,47.61
2023-05-04T01:22:45.072Z,47.45
2023-05-04T01:23:45.059Z,47.23
2023-05-04T01:24:45.065Z,47.57
2023-05-04T01:25:45.037Z,45.90
2023-05-04T01:26:45.052Z,46.38
2023-05-04T01:27:45.014Z,47.86
2023-05-04T01:28:46.028Z,47.93
2023-05-04T01:29:44.998Z,46.99
2023-05-04T01:30:45.120Z,46.49
2023-05-04T01:31:44.993Z,46.62
2023-05-04T01:32:45.139Z,46.90
2023-05-04T01:33:45.009Z,47.73
2023-05-04T01:34:45.033Z,48.60
2023-05-04T01:35:44.990Z,47.63
2023-05-04T01:36:45.013Z,47.21
2023-05-04T01:37:44.990Z,48.41
2023-05-04T01:38:45.104Z,46.59
2023-05-04T01:39:44.971Z,46.50
2023-05-04T01:40:44.951Z,47.35
2023-05-04T01:41:44.994Z,48.85
2023-05-04T01:42:44.957Z,50.34
2023-05-04T01:43:44.971Z,49.58
2023-05-04T01:44:44.964Z,47.87
2023-05-04T01:45:44.931Z,46.98
2023-05-04T01:46:45.000Z,47.52
2023-05-04T01:47:44.956Z,49.12
2023-05-04T01:48:44.918Z,49.97
2023-05-04T01:49:44.901Z,48.32
2023-05-04T01:50:44.889Z,47.29
2023-05-04T01:51:44.930Z,51.95
2023-05-04T01:52:45.008Z,49.30
2023-05-04T01:53:44.883Z,47.79
2023-05-04T01:54:44.883Z,49.45
2023-05-04T01:55:44.880Z,49.69
2023-05-04T01:56:44.898Z,46.95
2023-05-04T01:57:44.991Z,48.71
2023-05-04T01:58:44.857Z,46.80
2023-05-04T01:59:44.837Z,46.70
2023-05-04T02:00:44.866Z,47.81
2023-05-04T02:01:44.846Z,46.49
2023-05-04T02:02:45.041Z,48.76
2023-05-04T02:03:44.986Z,50.30
2023-05-04T02:04:44.840Z,48.44
2023-05-04T02:05:44.821Z,47.93
2023-05-04T02:06:44.805Z,47.91
2023-05-04T02:07:44.889Z,48.53
2023-05-04T02:08:44.788Z,48.40
2023-05-04T02:09:44.792Z,48.79
2023-05-04T02:10:44.786Z,46.50
2023-05-04T02:11:44.759Z,45.94
2023-05-04T02:12:44.815Z,48.23
2023-05-04T02:13:44.771Z,48.04
2023-05-04T02:14:44.802Z,50.48
2023-05-04T02:15:44.760Z,49.58
2023-05-04T02:16:44.751Z,47.58
2023-05-04T02:17:44.793Z,49.01
2023-05-04T02:18:44.750Z,47.60
2023-05-04T02:19:44.839Z,46.31
2023-05-04T02:20:44.732Z,46.14
2023-05-04T02:21:44.746Z,47.18
2023-05-04T02:22:44.727Z,46.25
2023-05-04T02:23:44.731Z,46.46
2023-05-04T02:24:44.761Z,46.31
2023-05-04T02:25:44.702Z,46.30
2023-05-04T02:26:44.690Z,46.53
2023-05-04T02:27:44.706Z,48.45
2023-05-04T02:28:44.705Z,46.94
2023-05-04T02:29:44.713Z,47.13
2023-05-04T02:30:44.701Z,47.84
2023-05-04T02:31:44.727Z,47.33
2023-05-04T02:32:44.719Z,47.77
2023-05-04T02:33:44.658Z,50.24
2023-05-04T02:34:44.684Z,49.51
2023-05-04T02:35:44.702Z,49.88
2023-05-04T02:36:44.628Z,49.72
2023-05-04T02:37:44.640Z,48.39
2023-05-04T02:38:44.622Z,48.09
2023-05-04T02:39:44.641Z,47.03
2023-05-04T02:40:44.621Z,48.56
2023-05-04T02:41:44.612Z,50.20
2023-05-04T02:42:44.614Z,52.24
2023-05-04T02:43:44.596Z,48.14
2023-05-04T02:44:44.601Z,48.30
2023-05-04T02:45:44.685Z,50.97
2023-05-04T02:46:44.591Z,49.00
2023-05-04T02:47:44.667Z,51.87
2023-05-04T02:48:44.623Z,56.02
2023-05-04T02:49:44.584Z,53.13
2023-05-04T02:50:44.585Z,53.18
2023-05-04T02:51:44.614Z,52.08
2023-05-04T02:52:44.589Z,52.51
2023-05-04T02:53:44.554Z,52.54
2023-05-04T02:54:44.924Z,51.53
2023-05-04T02:55:44.547Z,48.91
2023-05-04T02:56:44.609Z,48.93
2023-05-04T02:57:44.541Z,50.66
2023-05-04T02:58:44.527Z,50.47
2023-05-04T02:59:44.539Z,49.86
2023-05-04T03:00:44.539Z,51.29
2023-05-04T03:01:44.666Z,52.67
2023-05-04T03:02:44.569Z,52.86
2023-05-04T03:03:44.543Z,51.49
2023-05-04T03:04:44.656Z,52.47
2023-05-04T03:05:44.504Z,50.81
2023-05-04T03:06:44.510Z,50.58
2023-05-04T03:07:44.516Z,51.31
2023-05-04T03:08:44.488Z,51.74
2023-05-04T03:09:46.851Z,51.47
2023-05-04T03:10:44.460Z,52.63
2023-05-04T03:11:44.506Z,51.60
2023-05-04T03:12:44.516Z,51.50
2023-05-04T03:13:44.946Z,52.00
2023-05-04T03:14:44.506Z,50.25
2023-05-04T03:15:44.431Z,58.22
2023-05-04T03:16:44.501Z,59.49
2023-05-04T03:17:44.487Z,59.68
2023-05-04T03:18:59.088Z,59.84
2023-05-04T03:19:44.512Z,59.68
2023-05-04T03:20:44.484Z,59.57
2023-05-04T03:21:44.431Z,58.83
2023-05-04T03:22:44.431Z,58.57
2023-05-04T03:23:44.414Z,59.73
2023-05-04T03:24:44.395Z,58.69
2023-05-04T03:25:44.404Z,59.84
2023-05-04T03:26:44.396Z,55.69
2023-05-04T03:27:44.437Z,53.20
2023-05-04T03:28:44.409Z,53.54
2023-05-04T03:29:44.392Z,52.93
2023-05-04T03:30:44.355Z,52.37
2023-05-04T03:31:44.409Z,53.78
2023-05-04T03:32:44.352Z,52.53
2023-05-04T03:33:44.393Z,50.77
2023-05-04T03:34:44.377Z,52.98
2023-05-04T03:35:44.337Z,51.97
2023-05-04T03:36:44.316Z,51.80
2023-05-04T03:37:44.318Z,53.15
2023-05-04T03:38:44.305Z,55.85
2023-05-04T03:39:44.315Z,52.77
2023-05-04T03:40:44.315Z,54.67
2023-05-04T03:41:44.295Z,53.68
2023-05-04T03:42:44.393Z,53.56
2023-05-04T03:43:44.252Z,50.47
2023-05-04T03:44:44.321Z,51.10
2023-05-04T03:45:44.388Z,51.54
2023-05-04T03:46:44.265Z,51.13
2023-05-04T03:47:44.258Z,53.03
2023-05-04T03:48:44.256Z,53.25
2023-05-04T03:49:44.254Z,53.48
2023-05-04T03:50:44.236Z,53.86
2023-05-04T03:51:44.223Z,53.48
2023-05-04T03:52:44.382Z,53.77
2023-05-04T03:53:45.055Z,54.86
2023-05-04T03:54:45.220Z,52.30
2023-05-04T03:55:44.235Z,50.84
2023-05-04T03:56:44.187Z,51.21
2023-05-04T03:57:44.202Z,51.81
2023-05-04T03:58:44.194Z,54.87
2023-05-04T03:59:44.185Z,51.52
2023-05-04T04:00:44.188Z,53.07
2023-05-04T04:01:44.197Z,53.27
2023-05-04T04:02:44.242Z,53.28
2023-05-04T04:03:44.286Z,52.34
2023-05-04T04:04:44.240Z,55.05
2023-05-04T04:05:44.154Z,54.17
2023-05-04T04:06:44.161Z,55.82
2023-05-04T04:07:44.141Z,55.35
2023-05-04T04:08:44.115Z,52.88
2023-05-04T04:09:44.095Z,52.25
2023-05-04T04:10:44.154Z,51.13
2023-05-04T04:11:44.115Z,53.85
2023-05-04T04:12:44.199Z,51.26
2023-05-04T04:13:44.094Z,51.77
2023-05-04T04:14:44.108Z,55.97
2023-05-04T04:15:44.119Z,54.00
2023-05-04T04:16:44.126Z,54.17
2023-05-04T04:17:44.129Z,55.28
2023-05-04T04:18:44.078Z,55.38
2023-05-04T04:19:44.055Z,53.92
2023-05-04T04:20:44.060Z,55.97
2023-05-04T04:21:44.076Z,54.75
2023-05-04T04:22:44.049Z,54.87
2023-05-04T04:23:44.026Z,53.82
2023-05-04T04:24:44.037Z,57.20
2023-05-04T04:25:44.629Z,56.26
2023-05-04T04:26:45.054Z,57.84
2023-05-04T04:27:44.025Z,56.03
2023-05-04T04:28:44.003Z,53.42
2023-05-04T04:29:44.022Z,54.71
2023-05-04T04:30:43.968Z,55.52
2023-05-04T04:31:43.998Z,53.71
2023-05-04T04:32:44.021Z,53.96
2023-05-04T04:33:44.073Z,53.23
2023-05-04T04:34:44.001Z,52.54
2023-05-04T04:35:43.972Z,54.13
2023-05-04T04:36:43.956Z,52.08
2023-05-04T04:37:43.924Z,53.94
2023-05-04T04:38:43.951Z,55.25
2023-05-04T04:39:43.967Z,53.74
2023-05-04T04:40:43.935Z,52.98
2023-05-04T04:41:43.926Z,54.55
2023-05-04T04:42:43.915Z,56.73
2023-05-04T04:43:43.934Z,53.72
2023-05-04T04:44:43.894Z,53.89
2023-05-04T04:45:43.881Z,52.07
2023-05-04T04:46:43.893Z,52.86
2023-05-04T04:47:43.934Z,52.31
2023-05-04T04:48:43.938Z,53.49
2023-05-04T04:49:43.888Z,55.02
2023-05-04T04:50:43.876Z,53.88
2023-05-04T04:51:43.866Z,52.20
2023-05-04T04:52:43.984Z,52.20
2023-05-04T04:53:43.889Z,52.67
2023-05-04T04:54:43.876Z,52.68
2023-05-04T04:55:43.844Z,52.68
2023-05-04T04:56:43.841Z,52.39
2023-05-04T04:57:43.836Z,53.28
2023-05-04T04:58:43.874Z,54.20
2023-05-04T04:59:43.855Z,52.59
2023-05-04T05:00:43.935Z,54.73
2023-05-04T05:01:43.837Z,57.79
2023-05-04T05:02:43.869Z,61.41
2023-05-04T05:03:43.840Z,61.03
2023-05-04T05:04:43.843Z,55.96
2023-05-04T05:05:43.816Z,50.32
2023-05-04T05:06:43.843Z,51.07
2023-05-04T05:07:43.773Z,51.87
2023-05-04T05:08:43.828Z,51.89
2023-05-04T05:09:43.798Z,53.45
2023-05-04T05:10:44.156Z,53.54
2023-05-04T05:11:44.777Z,54.32
2023-05-04T05:12:43.771Z,51.57
2023-05-04T05:13:43.742Z,49.58
2023-05-04T05:14:43.754Z,51.01
2023-05-04T05:15:43.773Z,52.38
2023-05-04T05:16:43.788Z,50.76
2023-05-04T05:17:43.767Z,50.75
2023-05-04T05:18:43.729Z,54.52
2023-05-04T05:19:43.709Z,57.50
2023-05-04T05:20:43.754Z,54.01
2023-05-04T05:21:43.727Z,53.00
2023-05-04T05:22:43.698Z,53.39
2023-05-04T05:23:43.718Z,51.65
2023-05-04T05:24:43.688Z,50.33
2023-05-04T05:25:43.754Z,52.60
2023-05-04T05:26:43.748Z,51.70
2023-05-04T05:27:43.690Z,52.13
2023-05-04T05:28:43.685Z,53.87
2023-05-04T05:29:43.705Z,56.80
2023-05-04T05:30:43.738Z,52.72
2023-05-04T05:31:43.752Z,54.08
2023-05-04T05:32:43.715Z,54.84
2023-05-04T05:33:43.658Z,53.02
2023-05-04T05:34:43.674Z,53.98
2023-05-04T05:35:43.684Z,54.69
2023-05-04T05:36:43.671Z,54.03
2023-05-04T05:37:43.675Z,51.64
2023-05-04T05:38:43.646Z,53.41
2023-05-04T05:39:43.671Z,51.81
2023-05-04T05:40:43.660Z,51.63
2023-05-04T05:41:43.641Z,52.25
2023-05-04T05:42:43.657Z,51.29
2023-05-04T05:43:43.668Z,51.43
2023-05-04T05:44:43.617Z,54.83
2023-05-04T05:45:43.626Z,55.20
2023-05-04T05:46:43.656Z,53.20
2023-05-04T05:47:43.684Z,52.05
2023-05-04T05:48:43.637Z,52.87
2023-05-04T05:49:46.129Z,52.70
2023-05-04T05:50:43.616Z,52.09
2023-05-04T05:51:43.627Z,52.56
2023-05-04T05:52:43.618Z,51.73
2023-05-04T05:53:43.581Z,55.04
2023-05-04T05:54:43.559Z,53.01
2023-05-04T05:55:43.584Z,51.10
2023-05-04T05:56:43.573Z,51.05
2023-05-04T05:57:43.567Z,53.84
2023-05-04T05:58:43.548Z,51.99
2023-05-04T05:59:43.541Z,51.90
2023-05-04T06:00:43.597Z,52.16
2023-05-04T06:01:43.559Z,51.16
2023-05-04T06:02:43.664Z,51.52
2023-05-04T06:03:43.667Z,52.88
2023-05-04T06:04:43.531Z,50.76
2023-05-04T06:05:43.577Z,50.89
2023-05-04T06:06:45.824Z,52.34
2023-05-04T06:07:43.543Z,52.29
2023-05-04T06:08:43.513Z,53.55
2023-05-04T06:09:43.483Z,53.40
2023-05-04T06:10:43.509Z,51.58
2023-05-04T06:11:43.502Z,50.14
2023-05-04T06:12:44.532Z,51.94
2023-05-04T06:13:43.483Z,53.03
2023-05-04T06:14:43.467Z,52.44
2023-05-04T06:15:43.489Z,50.14
2023-05-04T06:16:43.505Z,52.13
2023-05-04T06:17:43.499Z,53.28
2023-05-04T06:18:43.485Z,50.39
2023-05-04T06:19:43.440Z,50.08
2023-05-04T06:20:43.440Z,51.04
2023-05-04T06:21:43.446Z,52.24
2023-05-04T06:22:43.459Z,49.92
2023-05-04T06:23:43.438Z,50.64
2023-05-04T06:24:43.419Z,54.84
2023-05-04T06:25:43.417Z,52.39
2023-05-04T06:26:43.407Z,51.93
2023-05-04T06:27:43.451Z,51.37
2023-05-04T06:28:43.432Z,53.30
2023-05-04T06:29:43.395Z,50.24
2023-05-04T06:30:43.430Z,51.10
2023-05-04T06:31:43.947Z,50.67
2023-05-04T06:32:43.432Z,52.05
2023-05-04T06:33:43.427Z,51.95
2023-05-04T06:34:43.356Z,50.32
2023-05-04T06:35:43.395Z,49.89
2023-05-04T06:36:43.372Z,48.44
2023-05-04T06:37:43.392Z,50.43
2023-05-04T06:38:43.378Z,49.54
2023-05-04T06:39:43.345Z,52.76
2023-05-04T06:40:43.360Z,52.31
2023-05-04T06:41:43.318Z,52.50
2023-05-04T06:42:43.315Z,49.00
2023-05-04T06:43:43.338Z,49.63
2023-05-04T06:44:43.317Z,51.70
2023-05-04T06:45:43.364Z,50.14
2023-05-04T06:46:43.293Z,49.24
2023-05-04T06:47:43.321Z,50.79
2023-05-04T06:48:43.287Z,53.97
2023-05-04T06:49:43.286Z,52.84
2023-05-04T06:50:43.270Z,50.94
2023-05-04T06:51:43.253Z,51.90
2023-05-04T06:52:43.242Z,49.94
2023-05-04T06:53:43.239Z,48.58
2023-05-04T06:54:43.276Z,50.35
2023-05-04T06:55:43.284Z,50.57
2023-05-04T06:56:43.224Z,48.51
2023-05-04T06:57:43.256Z,49.67
2023-05-04T06:58:43.226Z,50.40
2023-05-04T06:59:43.192Z,50.28
2023-05-04T07:00:43.271Z,51.22
2023-05-04T07:01:43.247Z,50.30
2023-05-04T07:02:43.235Z,49.77
2023-05-04T07:03:43.304Z,49.58
2023-05-04T07:04:43.187Z,48.71
2023-05-04T07:05:43.190Z,50.52
2023-05-04T07:06:43.194Z,51.64
2023-05-04T07:07:43.216Z,50.01
2023-05-04T07:08:43.139Z,52.37
2023-05-04T07:09:43.157Z,49.51
2023-05-04T07:10:43.221Z,48.74
2023-05-04T07:11:43.158Z,49.48
2023-05-04T07:12:43.145Z,49.38
2023-05-04T07:13:43.120Z,47.93
2023-05-04T07:14:43.138Z,49.14
2023-05-04T07:15:43.108Z,49.14
2023-05-04T07:16:43.288Z,53.20
2023-05-04T07:17:43.182Z,53.10
2023-05-04T07:18:43.068Z,51.80
2023-05-04T07:19:43.095Z,52.12
2023-05-04T07:20:43.105Z,48.62
2023-05-04T07:21:43.092Z,49.76
2023-05-04T07:22:43.067Z,52.02
2023-05-04T07:23:43.067Z,49.83
2023-05-04T07:24:43.058Z,53.68
2023-05-04T07:25:43.034Z,51.36
2023-05-04T07:26:43.052Z,50.28
2023-05-04T07:27:44.069Z,51.81
2023-05-04T07:28:44.066Z,53.07
2023-05-04T07:29:43.041Z,50.17
2023-05-04T07:30:43.022Z,49.51
2023-05-04T07:31:43.095Z,51.85
2023-05-04T07:32:43.077Z,49.33
2023-05-04T07:33:42.971Z,50.86
2023-05-04T07:34:46.230Z,52.68
2023-05-04T07:35:44.046Z,50.40
2023-05-04T07:36:43.652Z,51.87
2023-05-04T07:37:43.952Z,49.27
2023-05-04T07:38:42.944Z,48.59
2023-05-04T07:39:42.975Z,50.44
2023-05-04T07:40:42.932Z,52.61
2023-05-04T07:41:42.923Z,52.63
2023-05-04T07:42:42.933Z,62.60
2023-05-04T07:43:42.984Z,67.16
2023-05-04T07:44:42.881Z,67.45
2023-05-04T07:45:42.938Z,50.95
2023-05-04T07:46:42.922Z,50.64
2023-05-04T07:47:43.016Z,50.82
2023-05-04T07:48:42.950Z,62.09
2023-05-04T07:49:43.872Z,70.60
2023-05-04T07:50:42.890Z,66.89
2023-05-04T07:51:42.856Z,66.16
2023-05-04T07:52:42.859Z,66.17
2023-05-04T07:53:42.866Z,67.31
2023-05-04T07:54:42.843Z,65.90
2023-05-04T07:55:42.851Z,47.58
2023-05-04T07:56:42.827Z,47.64
2023-05-04T07:57:42.810Z,49.06
2023-05-04T07:58:42.919Z,48.72
2023-05-04T07:59:42.824Z,49.79
2023-05-04T08:00:42.794Z,49.22
2023-05-04T08:01:44.151Z,48.90
2023-05-04T08:02:43.946Z,50.85
2023-05-04T08:03:42.765Z,45.96
2023-05-04T08:04:42.824Z,57.20
2023-05-04T08:05:42.771Z,64.41
2023-05-04T08:06:42.780Z,67.28
2023-05-04T08:07:42.722Z,65.57
2023-05-04T08:08:42.711Z,64.73
2023-05-04T08:09:42.726Z,63.16
2023-05-04T08:10:42.692Z,56.32
2023-05-04T08:11:42.686Z,55.04
2023-05-04T08:12:42.727Z,48.52
2023-05-04T08:13:42.668Z,47.22
2023-05-04T08:14:42.745Z,49.99
2023-05-04T08:15:42.685Z,46.41
2023-05-04T08:16:42.679Z,48.06
2023-05-04T08:17:42.664Z,49.07
2023-05-04T08:18:42.674Z,49.22
2023-05-04T08:19:42.638Z,47.02
2023-05-04T08:20:42.674Z,47.57
2023-05-04T08:21:42.641Z,47.99
2023-05-04T08:22:42.660Z,49.06
2023-05-04T08:23:42.637Z,48.66
2023-05-04T08:24:42.597Z,48.49
2023-05-04T08:25:42.688Z,48.04
2023-05-04T08:26:45.349Z,48.47
2023-05-04T08:27:43.592Z,52.65
2023-05-04T08:28:42.575Z,48.41
2023-05-04T08:29:42.564Z,46.96
2023-05-04T08:30:42.568Z,48.54
2023-05-04T08:31:42.714Z,47.75
2023-05-04T08:32:42.681Z,48.03
2023-05-04T08:33:42.549Z,48.71
2023-05-04T08:34:42.570Z,47.24
2023-05-04T08:35:42.536Z,49.42
2023-05-04T08:36:42.524Z,48.91
2023-05-04T08:37:42.539Z,50.60
2023-05-04T08:38:42.537Z,48.64
2023-05-04T08:39:42.508Z,48.84
2023-05-04T08:40:42.502Z,48.38
2023-05-04T08:41:42.511Z,48.62
2023-05-04T08:42:42.535Z,47.98
2023-05-04T08:43:42.501Z,46.70
2023-05-04T08:44:43.922Z,49.61
2023-05-04T08:45:43.512Z,46.22
2023-05-04T08:46:42.445Z,43.64
2023-05-04T08:47:42.505Z,46.49
2023-05-04T08:48:42.484Z,46.81
2023-05-04T08:49:42.430Z,44.59
2023-05-04T08:50:42.450Z,47.59
2023-05-04T08:51:42.415Z,47.48
2023-05-04T08:52:42.442Z,48.14
2023-05-04T08:53:42.434Z,49.97
2023-05-04T08:54:42.491Z,47.88
2023-05-04T08:55:42.425Z,46.95
2023-05-04T08:56:42.378Z,45.77
2023-05-04T08:57:42.393Z,48.02
2023-05-04T08:58:42.387Z,47.81
2023-05-04T08:59:42.387Z,50.19
2023-05-04T09:00:42.416Z,51.94
2023-05-04T09:01:42.381Z,54.31
2023-05-04T09:02:42.472Z,58.05
2023-05-04T09:03:42.450Z,57.38
2023-05-04T09:04:42.393Z,53.06
2023-05-04T09:05:42.414Z,49.15
2023-05-04T09:06:42.344Z,48.71
2023-05-04T09:07:42.334Z,45.95
2023-05-04T09:08:42.358Z,46.21
2023-05-04T09:09:42.329Z,50.08
2023-05-04T09:10:42.305Z,49.18
2023-05-04T09:11:42.316Z,48.15
2023-05-04T09:12:42.359Z,48.42
2023-05-04T09:13:42.328Z,50.80
2023-05-04T09:14:42.317Z,50.40
2023-05-04T09:15:42.331Z,49.11
2023-05-04T09:16:42.329Z,50.25
2023-05-04T09:17:56.896Z,50.54
2023-05-04T09:18:44.249Z,52.03
2023-05-04T09:19:42.246Z,52.04
2023-05-04T09:20:42.258Z,50.27
2023-05-04T09:21:42.281Z,49.16
2023-05-04T09:22:42.232Z,51.29
2023-05-04T09:23:42.300Z,51.58
2023-05-04T09:24:42.205Z,50.26
2023-05-04T09:25:42.201Z,53.85
2023-05-04T09:26:42.222Z,48.79
2023-05-04T09:27:42.240Z,46.66
2023-05-04T09:28:42.197Z,45.95
2023-05-04T09:29:42.181Z,44.30
2023-05-04T09:30:42.211Z,46.34
2023-05-04T09:31:42.234Z,48.70
2023-05-04T09:32:42.202Z,48.19
2023-05-04T09:33:42.154Z,47.00
2023-05-04T09:34:42.302Z,50.65
2023-05-04T09:35:42.150Z,62.90
2023-05-04T09:36:42.193Z,62.89
2023-05-04T09:37:42.171Z,54.71
2023-05-04T09:38:42.130Z,57.78
2023-05-04T09:39:42.118Z,57.72
2023-05-04T09:40:42.222Z,56.88
2023-05-04T09:41:42.117Z,57.88
2023-05-04T09:42:42.129Z,57.80
2023-05-04T09:43:42.124Z,57.44
2023-05-04T09:44:42.096Z,53.99
2023-05-04T09:45:42.109Z,49.07
2023-05-04T09:46:42.102Z,49.54
2023-05-04T09:47:42.149Z,47.84
2023-05-04T09:48:42.085Z,47.97
2023-05-04T09:49:43.072Z,48.82
2023-05-04T09:50:42.082Z,49.51
2023-05-04T09:51:42.069Z,47.98
2023-05-04T09:52:42.090Z,50.32
2023-05-04T09:53:42.068Z,47.76
2023-05-04T09:54:42.162Z,47.70
2023-05-04T09:55:42.010Z,49.25
2023-05-04T09:56:42.023Z,45.39
2023-05-04T09:57:42.031Z,47.89
2023-05-04T09:58:42.002Z,45.63
2023-05-04T09:59:42.037Z,46.84
2023-05-04T10:00:42.007Z,48.19
2023-05-04T10:01:44.706Z,46.34
2023-05-04T10:02:42.076Z,46.01
2023-05-04T10:03:41.994Z,47.16
2023-05-04T10:04:41.998Z,48.07
2023-05-04T10:05:42.013Z,48.28
2023-05-04T10:06:41.968Z,49.47
2023-05-04T10:07:41.951Z,50.28
2023-05-04T10:08:41.987Z,49.68
2023-05-04T10:09:41.949Z,47.33
2023-05-04T10:10:41.937Z,46.82
2023-05-04T10:11:41.923Z,49.60
2023-05-04T10:12:41.975Z,48.45
2023-05-04T10:13:41.928Z,48.45
2023-05-04T10:14:41.906Z,47.11
2023-05-04T10:15:41.893Z,48.48
2023-05-04T10:16:41.904Z,48.20
2023-05-04T10:17:41.906Z,47.57
2023-05-04T10:18:41.901Z,47.09
2023-05-04T10:19:41.899Z,43.95
2023-05-04T10:20:41.890Z,47.40
2023-05-04T10:21:41.865Z,48.78
2023-05-04T10:22:41.885Z,45.97
2023-05-04T10:23:41.907Z,45.05
2023-05-04T10:24:41.862Z,44.79
2023-05-04T10:25:41.838Z,46.43
2023-05-04T10:26:41.839Z,46.47
2023-05-04T10:27:41.822Z,47.08
2023-05-04T10:28:41.814Z,47.68
2023-05-04T10:29:41.896Z,45.47
2023-05-04T10:30:41.892Z,50.95
2023-05-04T10:31:41.817Z,51.47
2023-05-04T10:32:41.858Z,47.17
2023-05-04T10:33:41.815Z,47.10
2023-05-04T10:34:41.803Z,46.78
2023-05-04T10:35:41.763Z,47.23
2023-05-04T10:36:41.839Z,45.95
2023-05-04T10:37:41.757Z,47.14
2023-05-04T10:38:41.790Z,46.70
2023-05-04T10:39:41.754Z,51.28
2023-05-04T10:40:41.759Z,49.21
2023-05-04T10:41:41.751Z,47.47
2023-05-04T10:42:41.716Z,49.38
2023-05-04T10:43:41.769Z,49.81
2023-05-04T10:44:41.732Z,50.46
2023-05-04T10:45:41.780Z,49.03
2023-05-04T10:46:41.722Z,48.72
2023-05-04T10:47:41.806Z,49.97
2023-05-04T10:48:41.691Z,48.21
2023-05-04T10:49:41.690Z,48.30
2023-05-04T10:50:41.693Z,47.99
2023-05-04T10:51:49.064Z,48.63
2023-05-04T10:52:43.767Z,49.29
2023-05-04T10:53:41.666Z,49.08
2023-05-04T10:54:41.715Z,48.08
2023-05-04T10:55:41.664Z,51.10
2023-05-04T10:56:41.669Z,48.06
2023-05-04T10:57:41.673Z,50.43
2023-05-04T10:58:41.642Z,52.80
2023-05-04T10:59:41.648Z,50.36
2023-05-04T11:00:41.650Z,50.91
2023-05-04T11:01:41.646Z,49.68
2023-05-04T11:02:41.681Z,48.01
2023-05-04T11:03:41.840Z,47.86
2023-05-04T11:04:41.629Z,48.43
2023-05-04T11:05:41.587Z,47.80
2023-05-04T11:06:41.620Z,47.35
2023-05-04T11:07:41.653Z,49.01
2023-05-04T11:08:41.589Z,48.68
2023-05-04T11:09:41.625Z,48.69
2023-05-04T11:10:41.742Z,54.56
2023-05-04T11:11:41.606Z,52.90
2023-05-04T11:12:41.583Z,54.04
2023-05-04T11:13:41.586Z,51.75
2023-05-04T11:14:41.568Z,51.01
2023-05-04T11:15:41.530Z,53.07
2023-05-04T11:16:41.607Z,52.53
2023-05-04T11:17:41.548Z,50.64
2023-05-04T11:18:41.601Z,47.89
2023-05-04T11:19:41.510Z,49.49
2023-05-04T11:20:41.513Z,50.05
2023-05-04T11:21:41.502Z,50.15
2023-05-04T11:22:41.501Z,49.63
2023-05-04T11:23:41.510Z,49.33
2023-05-04T11:24:41.478Z,46.83
2023-05-04T11:25:41.479Z,49.59
2023-05-04T11:26:41.856Z,49.81
2023-05-04T11:27:41.472Z,48.95
2023-05-04T11:28:43.266Z,48.61
2023-05-04T11:29:44.355Z,48.34
2023-05-04T11:30:42.581Z,52.27
2023-05-04T11:31:41.492Z,50.86
2023-05-04T11:32:41.443Z,48.71
2023-05-04T11:33:41.424Z,45.90
2023-05-04T11:34:41.432Z,48.73
2023-05-04T11:35:41.473Z,49.20
2023-05-04T11:36:41.407Z,48.02
2023-05-04T11:37:41.426Z,47.85
2023-05-04T11:38:41.389Z,48.30
2023-05-04T11:39:41.421Z,49.09
2023-05-04T11:40:41.461Z,49.18
2023-05-04T11:41:41.424Z,49.47
2023-05-04T11:42:41.367Z,50.35
2023-05-04T11:43:41.363Z,50.37
2023-05-04T11:44:41.351Z,48.47
2023-05-04T11:45:41.399Z,48.49
2023-05-04T11:46:41.365Z,46.52
2023-05-04T11:47:41.376Z,47.14
2023-05-04T11:48:41.322Z,48.62
2023-05-04T11:49:41.315Z,48.60
2023-05-04T11:50:41.330Z,45.56
2023-05-04T11:51:41.311Z,49.02
2023-05-04T11:52:41.295Z,48.12
2023-05-04T11:53:41.293Z,57.56
2023-05-04T11:54:41.424Z,61.19
2023-05-04T11:55:41.320Z,56.70
2023-05-04T11:56:41.344Z,55.36
2023-05-04T11:57:41.285Z,58.85
2023-05-04T11:58:41.260Z,61.55
2023-05-04T11:59:41.255Z,54.89
2023-05-04T12:00:41.272Z,55.31
2023-05-04T12:01:41.250Z,58.65
2023-05-04T12:02:41.388Z,60.45
2023-05-04T12:03:52.396Z,60.93
2023-05-04T12:04:43.248Z,59.03
2023-05-04T12:05:41.233Z,60.62
2023-05-04T12:06:41.205Z,60.03
2023-05-04T12:07:41.208Z,61.54
2023-05-04T12:08:41.219Z,60.28
2023-05-04T12:09:41.213Z,58.37
2023-05-04T12:10:41.221Z,58.47
2023-05-04T12:11:41.211Z,58.14
2023-05-04T12:12:41.246Z,58.88
2023-05-04T12:13:41.224Z,59.48
2023-05-04T12:14:41.229Z,53.19
2023-05-04T12:15:41.181Z,47.53
2023-05-04T12:16:41.225Z,49.88
2023-05-04T12:17:41.218Z,49.10
2023-05-04T12:18:41.140Z,48.50
2023-05-04T12:19:41.139Z,51.44
2023-05-04T12:20:41.108Z,52.99
2023-05-04T12:21:41.138Z,55.46
2023-05-04T12:22:41.177Z,54.99
2023-05-04T12:23:41.137Z,49.81
2023-05-04T12:24:41.101Z,49.99
2023-05-04T12:25:54.592Z,49.70
2023-05-04T12:26:43.111Z,48.71
2023-05-04T12:27:41.118Z,50.40
2023-05-04T12:28:41.092Z,50.35
2023-05-04T12:29:41.057Z,51.42
2023-05-04T12:30:41.173Z,50.07
2023-05-04T12:31:41.134Z,50.96
2023-05-04T12:32:41.138Z,52.22
2023-05-04T12:33:41.040Z,60.62
2023-05-04T12:34:41.062Z,60.76
2023-05-04T12:35:41.036Z,61.40
2023-05-04T12:36:41.020Z,59.07
2023-05-04T12:37:41.047Z,58.80
2023-05-04T12:38:41.064Z,59.86
2023-05-04T12:39:41.000Z,60.15
2023-05-04T12:40:41.007Z,62.15
2023-05-04T12:41:41.014Z,60.62
2023-05-04T12:42:40.984Z,60.32
2023-05-04T12:43:41.001Z,59.22
2023-05-04T12:44:40.964Z,59.86
2023-05-04T12:45:41.014Z,59.90
2023-05-04T12:46:40.937Z,60.20
2023-05-04T12:47:41.008Z,60.39
2023-05-04T12:48:40.963Z,59.71
2023-05-04T12:49:40.932Z,60.14
2023-05-04T12:50:40.944Z,59.99
2023-05-04T12:51:40.932Z,60.24
2023-05-04T12:52:40.958Z,61.04